createdAt,value
2018-06-13T00:01:02.485Z,2.63
2018-06-13T00:03:31.250Z,3.20
2018-06-13T00:06:00.761Z,3.87
2018-06-13T00:08:31.581Z,2.63
2018-06-13T00:11:00.749Z,2.90
2018-06-13T00:13:29.583Z,3.20
2018-06-13T00:15:58.464Z,3.23
2018-06-13T00:18:27.248Z,3.60
2018-06-13T00:20:56.061Z,3.40
2018-06-13T00:23:24.953Z,3.33
2018-06-13T00:25:53.825Z,3.80
2018-06-13T00:28:22.820Z,3.83
2018-06-13T00:30:51.636Z,3.50
2018-06-13T00:33:20.654Z,3.40
2018-06-13T00:35:49.373Z,3.80
2018-06-13T00:38:18.238Z,3.37
2018-06-13T00:40:47.734Z,3.47
2018-06-13T00:43:16.422Z,3.40
2018-06-13T00:45:45.074Z,3.23
2018-06-13T00:48:13.776Z,3.13
2018-06-13T00:50:43.096Z,3.30
2018-06-13T00:53:11.715Z,3.43
2018-06-13T00:56:48.868Z,3.23
2018-06-13T00:59:17.627Z,2.60
2018-06-13T01:01:46.431Z,3.37
2018-06-13T01:04:15.127Z,3.20
2018-06-13T01:06:43.897Z,3.30
2018-06-13T01:09:12.688Z,3.40
2018-06-13T01:11:41.369Z,2.90
2018-06-13T01:14:10.102Z,3.37
2018-06-13T01:16:39.077Z,2.93
2018-06-13T01:19:08.075Z,2.90
2018-06-13T01:21:36.424Z,3.10
2018-06-13T01:24:05.110Z,3.40
2018-06-13T01:26:33.848Z,2.90
2018-06-13T01:29:04.504Z,2.93
2018-06-13T01:31:33.213Z,3.03
2018-06-13T01:34:02.054Z,3.57
2018-06-13T01:36:30.736Z,3.30
2018-06-13T01:38:59.472Z,3.43
2018-06-13T01:41:28.665Z,3.40
2018-06-13T01:43:59.233Z,4.37
2018-06-13T01:46:28.797Z,4.37
2018-06-13T01:48:57.448Z,3.70
2018-06-13T01:51:26.195Z,3.40
2018-06-13T01:53:54.872Z,4.10
2018-06-13T01:56:23.697Z,3.90
2018-06-13T01:58:52.410Z,4.10
2018-06-13T02:01:21.106Z,3.80
2018-06-13T02:03:50.062Z,3.90
2018-06-13T02:06:18.834Z,3.80
2018-06-13T02:08:47.651Z,3.73
2018-06-13T02:11:16.316Z,4.00
2018-06-13T02:13:45.160Z,5.30
2018-06-13T02:16:13.913Z,3.93
2018-06-13T02:18:42.665Z,4.50
2018-06-13T02:21:11.425Z,4.10
2018-06-13T02:23:41.019Z,4.77
2018-06-13T02:26:09.698Z,4.70
2018-06-13T02:28:38.570Z,4.20
2018-06-13T02:31:07.447Z,4.43
2018-06-13T02:33:36.209Z,4.70
2018-06-13T02:36:11.931Z,4.30
2018-06-13T02:38:40.760Z,4.77
2018-06-13T02:41:09.602Z,4.30
2018-06-13T02:43:38.327Z,4.40
2018-06-13T02:46:07.053Z,4.20
2018-06-13T02:48:35.853Z,4.20
2018-06-13T02:51:04.709Z,4.87
2018-06-13T02:53:33.406Z,4.73
2018-06-13T02:56:01.770Z,4.63
2018-06-13T02:58:30.424Z,3.90
2018-06-13T03:00:59.140Z,4.13
2018-06-13T03:03:27.940Z,3.80
2018-06-13T03:05:56.798Z,4.30
2018-06-13T03:08:25.496Z,4.13
2018-06-13T03:10:54.602Z,4.50
2018-06-13T03:13:23.363Z,4.33
2018-06-13T03:15:53.052Z,4.60
2018-06-13T03:18:21.881Z,4.60
2018-06-13T03:20:50.563Z,4.37
2018-06-13T03:23:19.330Z,4.23
2018-06-13T03:25:48.227Z,4.10
2018-06-13T03:28:18.070Z,4.07
2018-06-13T03:30:46.953Z,3.53
2018-06-13T03:33:15.846Z,3.70
2018-06-13T03:35:44.485Z,4.20
2018-06-13T03:38:13.162Z,3.73
2018-06-13T03:40:43.275Z,4.23
2018-06-13T03:43:12.331Z,4.40
2018-06-13T03:45:40.981Z,3.77
2018-06-13T03:48:11.165Z,4.00
2018-06-13T03:50:39.592Z,3.77
2018-06-13T03:53:10.913Z,4.23
2018-06-13T03:55:39.753Z,3.70
2018-06-13T03:58:08.567Z,4.27
2018-06-13T04:00:37.560Z,3.87
2018-06-13T04:03:06.341Z,3.80
2018-06-13T04:05:35.586Z,3.53
2018-06-13T04:08:03.918Z,3.87
2018-06-13T04:10:33.193Z,3.70
2018-06-13T04:13:02.616Z,3.90
2018-06-13T04:15:31.374Z,4.13
2018-06-13T04:18:00.144Z,4.30
2018-06-13T04:20:28.959Z,4.70
2018-06-13T04:22:57.724Z,4.13
2018-06-13T04:25:26.368Z,5.00
2018-06-13T04:27:54.677Z,4.47
2018-06-13T04:30:23.359Z,4.03
2018-06-13T04:32:52.012Z,4.10
2018-06-13T04:35:20.689Z,3.90
2018-06-13T04:37:49.492Z,4.20
2018-06-13T04:40:18.216Z,4.07
2018-06-13T04:42:46.902Z,3.57
2018-06-13T04:45:15.660Z,3.73
2018-06-13T04:47:44.394Z,3.50
2018-06-13T04:50:13.090Z,3.43
2018-06-13T04:52:41.805Z,3.23
2018-06-13T04:55:10.609Z,2.90
2018-06-13T04:57:39.323Z,3.07
2018-06-13T05:00:08.080Z,3.20
2018-06-13T05:02:36.730Z,3.30
2018-06-13T05:05:05.433Z,3.17
2018-06-13T05:07:34.239Z,3.43
2018-06-13T05:10:03.145Z,3.50
2018-06-13T05:12:31.824Z,3.70
2018-06-13T05:15:00.544Z,3.40
2018-06-13T05:17:30.733Z,4.40
2018-06-13T05:19:59.499Z,3.80
2018-06-13T05:22:28.218Z,3.80
2018-06-13T05:24:56.906Z,3.87
2018-06-13T05:27:25.629Z,3.63
2018-06-13T05:29:54.346Z,3.57
2018-06-13T05:32:23.020Z,3.43
2018-06-13T05:34:51.784Z,4.07
2018-06-13T05:37:20.804Z,3.00
2018-06-13T05:39:49.560Z,3.20
2018-06-13T05:42:18.329Z,3.47
2018-06-13T05:44:46.982Z,3.20
2018-06-13T05:47:15.729Z,3.93
2018-06-13T05:49:44.357Z,3.90
2018-06-13T05:52:13.057Z,3.30
2018-06-13T05:54:41.942Z,3.67
2018-06-13T05:57:10.553Z,3.83
2018-06-13T05:59:39.263Z,3.30
2018-06-13T06:02:16.014Z,3.13
2018-06-13T06:04:44.676Z,3.20
2018-06-13T06:07:13.361Z,3.20
2018-06-13T06:09:42.028Z,3.40
2018-06-13T06:12:13.808Z,3.70
2018-06-13T06:14:42.564Z,3.90
2018-06-13T06:17:37.995Z,3.13
2018-06-13T06:20:07.975Z,3.57
2018-06-13T06:22:36.629Z,3.73
2018-06-13T06:25:05.802Z,4.37
2018-06-13T06:27:34.506Z,4.13
2018-06-13T06:30:03.316Z,4.60
2018-06-13T06:32:31.610Z,4.30
2018-06-13T06:35:00.441Z,4.80
2018-06-13T06:37:29.214Z,4.73
2018-06-13T06:40:28.816Z,4.30
2018-06-13T06:42:57.540Z,4.20
2018-06-13T06:45:26.174Z,5.57
2018-06-13T06:47:54.920Z,4.13
2018-06-13T06:50:24.164Z,4.30
2018-06-13T06:52:52.859Z,3.80
2018-06-13T06:55:21.581Z,3.93
2018-06-13T06:57:50.360Z,4.10
2018-06-13T07:00:19.073Z,3.33
2018-06-13T07:02:47.808Z,3.73
2018-06-13T07:05:18.114Z,3.67
2018-06-13T07:07:46.977Z,3.77
2018-06-13T07:10:15.697Z,3.50
2018-06-13T07:12:44.453Z,4.10
2018-06-13T07:15:13.180Z,3.10
2018-06-13T07:17:41.928Z,3.50
2018-06-13T07:20:10.630Z,3.50
2018-06-13T07:22:39.365Z,3.47
2018-06-13T07:25:08.084Z,3.50
2018-06-13T07:27:36.867Z,2.93
2018-06-13T07:30:07.076Z,3.83
2018-06-13T07:32:35.742Z,3.50
2018-06-13T07:35:04.520Z,3.60
2018-06-13T07:37:33.202Z,3.93
2018-06-13T07:40:01.824Z,3.13
2018-06-13T07:42:31.431Z,3.10
2018-06-13T07:45:00.093Z,2.97
2018-06-13T07:47:30.008Z,2.93
2018-06-13T07:49:58.359Z,2.70
2018-06-13T07:52:27.097Z,2.67
2018-06-13T07:54:55.848Z,2.50
2018-06-13T07:57:24.512Z,2.83
2018-06-13T07:59:53.910Z,2.20
2018-06-13T08:02:23.039Z,2.00
2018-06-13T08:04:52.970Z,2.50
2018-06-13T08:07:24.996Z,2.30
2018-06-13T08:09:53.936Z,2.10
2018-06-13T08:12:23.825Z,2.23
2018-06-13T08:14:53.411Z,2.40
2018-06-13T08:17:22.124Z,3.03
2018-06-13T08:19:50.958Z,3.10
2018-06-13T08:22:22.857Z,3.10
2018-06-13T08:24:53.864Z,2.73
2018-06-13T08:27:23.376Z,3.20
2018-06-13T08:29:52.124Z,3.00
2018-06-13T08:32:20.837Z,3.13
2018-06-13T08:34:49.920Z,3.07
2018-06-13T08:37:18.609Z,3.13
2018-06-13T08:39:47.449Z,2.83
2018-06-13T08:42:16.204Z,3.30
2018-06-13T08:44:44.969Z,2.73
2018-06-13T08:47:13.930Z,2.80
2018-06-13T08:49:42.595Z,2.20
2018-06-13T08:52:11.418Z,2.80
2018-06-13T08:54:40.198Z,3.00
2018-06-13T08:57:09.388Z,2.17
2018-06-13T08:59:38.067Z,2.50
2018-06-13T09:02:06.782Z,1.97
2018-06-13T09:04:35.474Z,2.67
2018-06-13T09:07:04.168Z,2.30
2018-06-13T09:09:33.795Z,2.10
2018-06-13T09:12:02.631Z,2.27
2018-06-13T09:14:31.408Z,2.50
2018-06-13T09:17:00.152Z,2.67
2018-06-13T09:19:28.894Z,2.40
2018-06-13T09:21:57.730Z,2.43
2018-06-13T09:24:26.502Z,2.57
2018-06-13T09:26:55.171Z,2.60
2018-06-13T09:29:25.151Z,2.47
2018-06-13T09:31:53.908Z,2.93
2018-06-13T09:34:22.621Z,2.50
2018-06-13T09:36:51.448Z,2.50
2018-06-13T09:39:20.195Z,2.93
2018-06-13T09:41:54.131Z,2.40
2018-06-13T09:44:22.869Z,2.30
2018-06-13T09:46:51.551Z,2.40
2018-06-13T09:49:20.283Z,2.70
2018-06-13T09:51:48.623Z,2.87
2018-06-13T09:54:17.275Z,3.10
2018-06-13T09:56:45.970Z,2.93
2018-06-13T09:59:18.355Z,3.00
2018-06-13T10:01:53.239Z,2.97
2018-06-13T10:04:22.319Z,2.67
2018-06-13T10:06:51.042Z,3.00
2018-06-13T10:09:19.735Z,2.90
2018-06-13T10:11:48.443Z,3.07
2018-06-13T10:14:17.082Z,3.00
2018-06-13T10:16:45.916Z,2.80
2018-06-13T10:19:14.668Z,2.67
2018-06-13T10:21:43.451Z,2.80
2018-06-13T10:24:12.143Z,3.20
2018-06-13T10:26:40.801Z,2.97
2018-06-13T10:29:09.449Z,2.60
2018-06-13T10:31:38.970Z,2.30
2018-06-13T10:34:07.792Z,2.30
2018-06-13T10:36:36.090Z,2.23
2018-06-13T10:39:07.001Z,2.20
2018-06-13T10:41:36.749Z,2.20
2018-06-13T10:44:06.053Z,2.77
2018-06-13T10:46:34.885Z,2.50
2018-06-13T10:49:03.546Z,2.30
2018-06-13T10:51:32.334Z,2.53
2018-06-13T10:54:01.059Z,2.53
2018-06-13T10:56:29.809Z,2.30
2018-06-13T10:59:00.581Z,2.40
2018-06-13T11:01:29.300Z,2.50
2018-06-13T11:03:57.953Z,2.60
2018-06-13T11:06:26.693Z,2.40
2018-06-13T11:08:55.462Z,2.30
2018-06-13T11:11:24.180Z,2.90
2018-06-13T11:13:52.861Z,3.20
2018-06-13T11:16:21.603Z,2.67
2018-06-13T11:18:50.377Z,2.60
2018-06-13T11:21:19.089Z,2.60
2018-06-13T11:23:49.700Z,2.80
2018-06-13T11:26:18.337Z,2.77
2018-06-13T11:28:47.190Z,2.43
2018-06-13T11:31:15.856Z,2.53
2018-06-13T11:33:44.633Z,2.13
2018-06-13T11:36:13.586Z,2.60
2018-06-13T11:38:42.216Z,2.97
2018-06-13T11:41:10.995Z,2.83
2018-06-13T11:43:40.769Z,3.07
2018-06-13T11:46:09.510Z,2.70
2018-06-13T11:48:37.881Z,2.60
2018-06-13T11:51:06.639Z,2.07
2018-06-13T11:53:37.372Z,2.40
2018-06-13T11:56:06.083Z,2.80
2018-06-13T11:58:34.786Z,1.90
2018-06-13T12:01:04.223Z,2.73
2018-06-13T12:03:33.006Z,2.40
2018-06-13T12:06:01.841Z,2.07
2018-06-13T12:08:30.591Z,2.20
2018-06-13T12:10:59.290Z,3.50
2018-06-13T12:13:28.014Z,2.20
2018-06-13T12:15:56.332Z,2.20
2018-06-13T12:18:25.099Z,2.47
2018-06-13T12:20:53.845Z,2.50
2018-06-13T12:23:22.606Z,2.20
2018-06-13T12:25:51.339Z,2.70
2018-06-13T12:28:20.338Z,2.67
2018-06-13T12:30:49.073Z,2.60
2018-06-13T12:33:17.778Z,2.50
2018-06-13T12:35:46.905Z,2.33
2018-06-13T12:38:15.733Z,2.50
2018-06-13T12:40:44.725Z,2.40
2018-06-13T12:43:14.324Z,2.43
2018-06-13T12:45:43.048Z,2.57
2018-06-13T12:48:11.785Z,2.50
2018-06-13T12:50:40.700Z,2.43
2018-06-13T12:53:09.027Z,2.30
2018-06-13T12:55:37.849Z,2.40
2018-06-13T12:58:06.603Z,2.50
2018-06-13T13:00:35.389Z,2.30
2018-06-13T13:03:04.186Z,2.33
2018-06-13T13:05:40.835Z,2.30
2018-06-13T13:08:10.552Z,2.37
2018-06-13T13:10:40.725Z,2.53
2018-06-13T13:13:10.469Z,2.10
2018-06-13T13:15:40.954Z,2.30
2018-06-13T13:18:10.677Z,2.97
2018-06-13T13:20:39.320Z,2.40
2018-06-13T13:23:08.151Z,2.13
2018-06-13T13:25:36.834Z,2.10
2018-06-13T13:28:05.697Z,1.83
2018-06-13T13:30:34.429Z,2.30
2018-06-13T13:33:03.146Z,2.03
2018-06-13T13:35:31.812Z,2.10
2018-06-13T13:38:00.503Z,1.90
2018-06-13T13:40:29.757Z,2.23
2018-06-13T13:42:58.505Z,2.10
2018-06-13T13:45:28.652Z,2.40
2018-06-13T13:47:57.316Z,2.40
2018-06-13T13:50:26.029Z,2.20
2018-06-13T13:52:54.686Z,2.10
2018-06-13T13:55:26.770Z,1.93
2018-06-13T13:57:55.876Z,1.90
2018-06-13T14:00:28.330Z,2.07
2018-06-13T14:02:57.722Z,2.17
2018-06-13T14:05:27.281Z,2.40
2018-06-13T14:07:56.013Z,2.20
2018-06-13T14:10:24.711Z,2.40
2018-06-13T14:12:53.371Z,2.30
2018-06-13T14:15:22.167Z,2.67
2018-06-13T14:17:50.854Z,2.60
2018-06-13T14:20:19.659Z,2.27
2018-06-13T14:22:48.389Z,2.20
2018-06-13T14:25:17.078Z,2.23
2018-06-13T14:27:45.837Z,1.87
2018-06-13T14:30:14.920Z,1.80
2018-06-13T14:32:43.686Z,1.87
2018-06-13T14:35:12.536Z,1.60
2018-06-13T14:37:41.371Z,1.73
2018-06-13T14:40:10.365Z,2.07
2018-06-13T14:42:39.174Z,1.90
2018-06-13T14:45:07.923Z,2.30
2018-06-13T14:47:38.721Z,2.50
2018-06-13T14:50:07.486Z,1.87
2018-06-13T14:52:36.667Z,2.93
2018-06-13T14:55:05.502Z,2.17
2018-06-13T14:57:34.600Z,2.10
2018-06-13T15:00:07.845Z,2.03
2018-06-13T15:02:38.925Z,2.00
2018-06-13T15:05:07.821Z,2.30
2018-06-13T15:07:36.242Z,2.27
2018-06-13T15:10:05.258Z,1.90
2018-06-13T15:12:34.020Z,2.20
2018-06-13T15:15:02.794Z,1.90
2018-06-13T15:17:31.711Z,2.17
2018-06-13T15:20:00.513Z,2.30
2018-06-13T15:22:29.236Z,2.27
2018-06-13T15:24:58.028Z,2.20
2018-06-13T15:27:26.840Z,2.20
2018-06-13T15:29:55.704Z,2.13
2018-06-13T15:32:24.418Z,2.10
2018-06-13T15:34:53.152Z,2.10
2018-06-13T15:37:21.859Z,2.20
2018-06-13T15:39:50.643Z,2.20
2018-06-13T15:42:19.270Z,2.43
2018-06-13T15:44:47.940Z,2.00
2018-06-13T15:47:16.750Z,2.33
2018-06-13T15:49:45.421Z,1.90
2018-06-13T15:52:14.109Z,2.60
2018-06-13T15:54:42.756Z,2.20
2018-06-13T15:57:11.468Z,1.90
2018-06-13T15:59:40.126Z,1.90
2018-06-13T16:02:08.874Z,2.20
2018-06-13T16:04:37.546Z,2.77
2018-06-13T16:07:06.230Z,2.00
2018-06-13T16:09:41.269Z,2.33
2018-06-13T16:12:09.959Z,2.40
2018-06-13T16:14:39.251Z,2.60
2018-06-13T16:17:07.945Z,2.20
2018-06-13T16:19:36.608Z,1.90
2018-06-13T16:22:05.348Z,2.50
2018-06-13T16:24:34.340Z,2.10
2018-06-13T16:27:03.017Z,2.90
2018-06-13T16:29:39.447Z,2.43
2018-06-13T16:32:08.108Z,2.10
2018-06-13T16:34:36.761Z,2.60
2018-06-13T16:37:05.541Z,2.00
2018-06-13T16:39:34.233Z,2.07
2018-06-13T16:42:02.986Z,2.23
2018-06-13T16:44:31.669Z,2.30
2018-06-13T16:47:00.356Z,1.83
2018-06-13T16:49:29.141Z,2.30
2018-06-13T16:51:58.709Z,2.83
2018-06-13T16:54:38.375Z,1.80
2018-06-13T16:57:07.176Z,2.17
2018-06-13T16:59:35.891Z,2.20
2018-06-13T17:02:04.786Z,2.30
2018-06-13T17:04:33.593Z,1.97
2018-06-13T17:07:02.248Z,2.50
2018-06-13T17:09:30.944Z,2.30
2018-06-13T17:11:59.843Z,2.23
2018-06-13T17:14:28.621Z,2.10
2018-06-13T17:16:57.329Z,2.10
2018-06-13T17:19:26.203Z,2.27
2018-06-13T17:21:54.992Z,2.30
2018-06-13T17:24:23.720Z,2.47
2018-06-13T17:26:52.418Z,2.40
2018-06-13T17:29:21.070Z,2.10
2018-06-13T17:31:49.916Z,2.20
2018-06-13T17:34:18.772Z,2.10
2018-06-13T17:36:47.929Z,2.23
2018-06-13T17:39:16.847Z,1.67
2018-06-13T17:41:45.563Z,1.80
2018-06-13T17:44:14.284Z,1.83
2018-06-13T17:46:43.065Z,2.10
2018-06-13T17:49:11.789Z,1.77
2018-06-13T17:51:40.465Z,2.00
2018-06-13T17:54:09.066Z,1.50
2018-06-13T17:56:39.933Z,1.80
2018-06-13T17:59:08.926Z,1.90
2018-06-13T18:01:37.644Z,1.80
2018-06-13T18:04:06.497Z,1.90
2018-06-13T18:06:35.147Z,1.90
2018-06-13T18:09:04.816Z,2.07
2018-06-13T18:11:33.548Z,1.87
2018-06-13T18:14:02.257Z,1.90
2018-06-13T18:16:30.612Z,2.30
2018-06-13T18:19:03.348Z,2.00
2018-06-13T18:21:32.069Z,2.03
2018-06-13T18:24:00.421Z,2.17
2018-06-13T18:26:29.217Z,2.00
2018-06-13T18:28:58.015Z,2.27
2018-06-13T18:31:26.724Z,1.93
2018-06-13T18:33:55.597Z,2.27
2018-06-13T18:36:24.354Z,2.20
2018-06-13T18:38:53.102Z,2.40
2018-06-13T18:41:21.779Z,2.37
2018-06-13T18:43:50.438Z,2.03
2018-06-13T18:46:18.758Z,2.03
2018-06-13T18:48:47.509Z,2.10
2018-06-13T18:51:15.879Z,2.37
2018-06-13T18:53:44.589Z,2.10
2018-06-13T18:56:13.254Z,1.67
2018-06-13T18:58:42.108Z,2.13
2018-06-13T19:01:10.814Z,2.27
2018-06-13T19:03:39.572Z,2.07
2018-06-13T19:06:08.264Z,2.50
2018-06-13T19:08:36.972Z,2.30
2018-06-13T19:11:05.727Z,2.00
2018-06-13T19:13:34.440Z,2.00
2018-06-13T19:16:03.182Z,2.23
2018-06-13T19:18:31.912Z,2.13
2018-06-13T19:21:00.749Z,2.13
2018-06-13T19:23:29.485Z,2.00
2018-06-13T19:25:58.226Z,2.00
2018-06-13T19:28:26.903Z,1.90
2018-06-13T19:30:55.599Z,2.13
2018-06-13T19:33:24.316Z,2.23
2018-06-13T19:35:53.073Z,1.87
2018-06-13T19:38:21.743Z,2.00
2018-06-13T19:40:50.460Z,1.93
2018-06-13T19:43:24.373Z,2.20
2018-06-13T19:45:53.239Z,1.90
2018-06-13T19:48:27.023Z,1.60
2018-06-13T19:50:55.770Z,2.10
2018-06-13T19:53:29.795Z,2.27
2018-06-13T19:56:05.703Z,1.80
2018-06-13T19:58:35.301Z,2.33
2018-06-13T20:01:04.034Z,3.00
2018-06-13T20:03:38.115Z,2.47
2018-06-13T20:06:06.887Z,2.33
2018-06-13T20:08:35.627Z,1.90
2018-06-13T20:11:04.301Z,2.10
2018-06-13T20:13:38.093Z,2.50
2018-06-13T20:16:11.908Z,2.30
2018-06-13T20:18:45.905Z,2.13
2018-06-13T20:21:14.557Z,2.57
2018-06-13T20:23:43.981Z,2.37
2018-06-13T20:26:18.028Z,2.53
2018-06-13T20:28:52.015Z,2.50
2018-06-13T20:31:28.371Z,2.10
2018-06-13T20:33:56.994Z,2.70
2018-06-13T20:36:25.685Z,2.50
2018-06-13T20:38:54.431Z,2.53
2018-06-13T20:41:23.131Z,2.20
2018-06-13T20:43:51.933Z,2.30
2018-06-13T20:46:20.677Z,2.40
2018-06-13T20:48:49.428Z,2.53
2018-06-13T20:51:18.226Z,2.27
2018-06-13T20:53:46.869Z,2.50
2018-06-13T20:56:15.626Z,2.57
2018-06-13T20:58:44.325Z,2.70
2018-06-13T21:01:13.549Z,2.60
2018-06-13T21:03:42.234Z,2.80
2018-06-13T21:06:10.915Z,2.60
2018-06-13T21:08:39.663Z,2.60
2018-06-13T21:11:08.338Z,2.60
2018-06-13T21:13:37.050Z,2.60
2018-06-13T21:16:05.821Z,2.67
2018-06-13T21:18:34.533Z,2.50
2018-06-13T21:21:03.330Z,2.60
2018-06-13T21:23:32.509Z,2.80
2018-06-13T21:26:01.253Z,2.50
2018-06-13T21:28:29.992Z,2.90
2018-06-13T21:30:58.807Z,3.30
2018-06-13T21:33:27.633Z,2.90
2018-06-13T21:35:55.952Z,2.60
2018-06-13T21:38:24.675Z,2.80
2018-06-13T21:40:53.388Z,2.80
2018-06-13T21:43:22.184Z,3.23
2018-06-13T21:45:50.850Z,2.93
2018-06-13T21:48:19.584Z,2.90
2018-06-13T21:50:48.298Z,2.80
2018-06-13T21:53:17.116Z,2.57
2018-06-13T21:55:45.844Z,3.07
2018-06-13T21:58:16.628Z,2.70
2018-06-13T22:00:45.394Z,2.60
2018-06-13T22:03:14.144Z,2.90
2018-06-13T22:05:42.869Z,2.83
2018-06-13T22:08:11.657Z,3.20
2018-06-13T22:10:40.472Z,2.93
2018-06-13T22:13:09.183Z,2.67
2018-06-13T22:15:37.900Z,2.80
2018-06-13T22:18:06.648Z,2.70
2018-06-13T22:20:35.431Z,2.80
2018-06-13T22:23:04.140Z,2.97
2018-06-13T22:25:32.882Z,3.20
2018-06-13T22:28:01.583Z,2.83
2018-06-13T22:30:30.271Z,2.87
2018-06-13T22:32:58.988Z,2.90
2018-06-13T22:35:27.801Z,2.47
2018-06-13T22:37:56.511Z,2.50
2018-06-13T22:40:25.197Z,2.63
2018-06-13T22:42:54.016Z,2.67
2018-06-13T22:45:22.850Z,3.10
2018-06-13T22:47:52.029Z,2.27
2018-06-13T22:50:20.764Z,2.63
2018-06-13T22:52:49.113Z,3.13
2018-06-13T22:55:17.875Z,2.67
2018-06-13T22:57:46.574Z,2.60
2018-06-13T23:00:23.526Z,2.90
2018-06-13T23:02:52.239Z,2.57
2018-06-13T23:05:20.909Z,2.87
2018-06-13T23:07:53.313Z,2.80
2018-06-13T23:10:22.025Z,3.00
2018-06-13T23:12:50.824Z,3.57
2018-06-13T23:15:19.597Z,3.40
2018-06-13T23:17:48.321Z,3.30
2018-06-13T23:20:17.131Z,2.50
2018-06-13T23:22:45.809Z,3.30
2018-06-13T23:25:14.501Z,3.00
2018-06-13T23:27:45.232Z,2.67
2018-06-13T23:30:13.969Z,3.17
2018-06-13T23:32:42.720Z,2.80
2018-06-13T23:35:11.403Z,3.00
2018-06-13T23:37:40.210Z,2.90
2018-06-13T23:40:08.922Z,3.27
2018-06-13T23:42:37.602Z,3.17
2018-06-13T23:45:06.387Z,3.23
2018-06-13T23:47:35.107Z,3.10
2018-06-13T23:50:03.945Z,3.03
2018-06-13T23:52:32.711Z,2.80
2018-06-13T23:55:01.464Z,3.10
2018-06-13T23:57:30.222Z,2.87
2018-06-13T23:59:58.908Z,3.10
